sensor_id;sensor_type;location;lat;lon;timestamp;temperature;humidity
45715;DHT22;31430;61.646;24.704;2023-04-03T00:01:42;-9.40;99.90
45715;DHT22;31430;61.646;24.704;2023-04-03T00:04:08;-9.40;99.90
45715;DHT22;31430;61.646;24.704;2023-04-03T00:06:34;-9.40;99.90
45715;DHT22;31430;61.646;24.704;2023-04-03T00:09:00;-9.50;99.90
45715;DHT22;31430;61.646;24.704;2023-04-03T00:11:26;-9.50;99.90
45715;DHT22;31430;61.646;24.704;2023-04-03T00:13:51;-9.50;99.90
45715;DHT22;31430;61.646;24.704;2023-04-03T00:16:17;-9.50;99.90
45715;DHT22;31430;61.646;24.704;2023-04-03T00:18:43;-9.50;99.90
45715;DHT22;31430;61.646;24.704;2023-04-03T00:21:10;-9.50;99.90
45715;DHT22;31430;61.646;24.704;2023-04-03T00:23:37;-9.60;99.90
45715;DHT22;31430;61.646;24.704;2023-04-03T00:26:03;-9.60;99.90
45715;DHT22;31430;61.646;24.704;2023-04-03T00:28:29;-9.60;99.90
45715;DHT22;31430;61.646;24.704;2023-04-03T00:30:54;-9.70;99.90
45715;DHT22;31430;61.646;24.704;2023-04-03T00:33:20;-9.70;99.90
45715;DHT22;31430;61.646;24.704;2023-04-03T00:35:47;-9.70;99.90
45715;DHT22;31430;61.646;24.704;2023-04-03T00:38:14;-9.80;99.90
45715;DHT22;31430;61.646;24.704;2023-04-03T00:40:43;-9.80;99.90
45715;DHT22;31430;61.646;24.704;2023-04-03T00:43:16;-9.90;99.90
45715;DHT22;31430;61.646;24.704;2023-04-03T00:45:43;-9.90;99.90
45715;DHT22;31430;61.646;24.704;2023-04-03T00:48:15;-9.80;99.90
45715;DHT22;31430;61.646;24.704;2023-04-03T00:50:43;-9.90;99.90
45715;DHT22;31430;61.646;24.704;2023-04-03T00:53:14;-9.90;99.90
45715;DHT22;31430;61.646;24.704;2023-04-03T00:55:41;-10.00;99.90
45715;DHT22;31430;61.646;24.704;2023-04-03T00:58:08;-9.90;99.90
45715;DHT22;31430;61.646;24.704;2023-04-03T01:00:37;-10.00;99.90
45715;DHT22;31430;61.646;24.704;2023-04-03T01:03:04;-10.00;99.90
45715;DHT22;31430;61.646;24.704;2023-04-03T01:05:30;-10.00;99.90
45715;DHT22;31430;61.646;24.704;2023-04-03T01:07:56;-10.10;99.90
45715;DHT22;31430;61.646;24.704;2023-04-03T01:10:23;-10.10;99.90
45715;DHT22;31430;61.646;24.704;2023-04-03T01:12:51;-10.10;99.90
45715;DHT22;31430;61.646;24.704;2023-04-03T01:15:18;-10.10;99.90
45715;DHT22;31430;61.646;24.704;2023-04-03T01:17:53;-10.10;99.90
45715;DHT22;31430;61.646;24.704;2023-04-03T01:28:04;-10.10;99.90
45715;DHT22;31430;61.646;24.704;2023-04-03T01:33:27;-10.20;99.90
45715;DHT22;31430;61.646;24.704;2023-04-03T01:35:53;-10.20;99.90
45715;DHT22;31430;61.646;24.704;2023-04-03T01:38:20;-10.20;99.90
45715;DHT22;31430;61.646;24.704;2023-04-03T01:40:46;-10.10;99.90
45715;DHT22;31430;61.646;24.704;2023-04-03T01:43:11;-10.10;99.90
45715;DHT22;31430;61.646;24.704;2023-04-03T01:45:37;-10.10;99.90
45715;DHT22;31430;61.646;24.704;2023-04-03T01:48:03;-10.20;99.90
45715;DHT22;31430;61.646;24.704;2023-04-03T01:50:29;-10.30;99.90
45715;DHT22;31430;61.646;24.704;2023-04-03T01:52:55;-10.40;99.90
45715;DHT22;31430;61.646;24.704;2023-04-03T01:55:21;-10.50;99.90
45715;DHT22;31430;61.646;24.704;2023-04-03T01:57:47;-10.60;99.90
45715;DHT22;31430;61.646;24.704;2023-04-03T02:00:13;-10.60;99.90
45715;DHT22;31430;61.646;24.704;2023-04-03T02:02:39;-10.70;99.90
45715;DHT22;31430;61.646;24.704;2023-04-03T02:05:05;-10.80;99.90
45715;DHT22;31430;61.646;24.704;2023-04-03T02:07:31;-10.70;99.90
45715;DHT22;31430;61.646;24.704;2023-04-03T02:09:57;-10.80;99.90
45715;DHT22;31430;61.646;24.704;2023-04-03T02:12:23;-10.90;99.90
45715;DHT22;31430;61.646;24.704;2023-04-03T02:14:48;-11.00;99.90
45715;DHT22;31430;61.646;24.704;2023-04-03T02:17:14;-11.00;99.90
45715;DHT22;31430;61.646;24.704;2023-04-03T02:19:40;-11.10;99.90
45715;DHT22;31430;61.646;24.704;2023-04-03T02:22:06;-11.20;99.90
45715;DHT22;31430;61.646;24.704;2023-04-03T02:24:32;-11.20;99.90
45715;DHT22;31430;61.646;24.704;2023-04-03T02:26:58;-11.30;99.90
45715;DHT22;31430;61.646;24.704;2023-04-03T02:29:24;-11.30;99.90
45715;DHT22;31430;61.646;24.704;2023-04-03T02:31:50;-11.30;99.90
45715;DHT22;31430;61.646;24.704;2023-04-03T02:34:16;-11.20;99.90
45715;DHT22;31430;61.646;24.704;2023-04-03T02:36:42;-11.10;99.90
45715;DHT22;31430;61.646;24.704;2023-04-03T02:39:08;-11.10;99.90
45715;DHT22;31430;61.646;24.704;2023-04-03T02:41:34;-11.20;99.90
45715;DHT22;31430;61.646;24.704;2023-04-03T02:44:06;-11.30;99.90
45715;DHT22;31430;61.646;24.704;2023-04-03T02:46:32;-11.50;99.90
45715;DHT22;31430;61.646;24.704;2023-04-03T02:48:58;-11.60;99.90
45715;DHT22;31430;61.646;24.704;2023-04-03T02:51:24;-11.60;99.90
45715;DHT22;31430;61.646;24.704;2023-04-03T02:53:50;-11.70;99.90
45715;DHT22;31430;61.646;24.704;2023-04-03T02:56:16;-11.70;99.90
45715;DHT22;31430;61.646;24.704;2023-04-03T02:58:43;-11.60;99.90
45715;DHT22;31430;61.646;24.704;2023-04-03T03:01:09;-11.70;99.90
45715;DHT22;31430;61.646;24.704;2023-04-03T03:03:35;-11.80;99.90
45715;DHT22;31430;61.646;24.704;2023-04-03T03:06:09;-11.80;99.90
45715;DHT22;31430;61.646;24.704;2023-04-03T03:08:35;-11.70;99.90
45715;DHT22;31430;61.646;24.704;2023-04-03T03:11:05;-11.80;99.90
45715;DHT22;31430;61.646;24.704;2023-04-03T03:13:31;-11.80;99.90
45715;DHT22;31430;61.646;24.704;2023-04-03T03:15:57;-11.90;99.90
45715;DHT22;31430;61.646;24.704;2023-04-03T03:18:24;-11.90;99.90
45715;DHT22;31430;61.646;24.704;2023-04-03T03:20:54;-11.90;99.90
45715;DHT22;31430;61.646;24.704;2023-04-03T03:23:21;-11.80;99.90
45715;DHT22;31430;61.646;24.704;2023-04-03T03:25:47;-11.90;99.90
45715;DHT22;31430;61.646;24.704;2023-04-03T03:28:13;-12.00;99.90
45715;DHT22;31430;61.646;24.704;2023-04-03T03:30:39;-12.00;99.90
45715;DHT22;31430;61.646;24.704;2023-04-03T03:33:04;-12.10;99.90
45715;DHT22;31430;61.646;24.704;2023-04-03T03:35:30;-12.10;99.90
45715;DHT22;31430;61.646;24.704;2023-04-03T03:37:56;-12.10;99.90
45715;DHT22;31430;61.646;24.704;2023-04-03T03:40:21;-12.10;99.90
45715;DHT22;31430;61.646;24.704;2023-04-03T03:42:47;-12.10;99.90
45715;DHT22;31430;61.646;24.704;2023-04-03T03:45:13;-12.20;99.90
45715;DHT22;31430;61.646;24.704;2023-04-03T03:47:39;-12.30;99.90
45715;DHT22;31430;61.646;24.704;2023-04-03T03:50:06;-12.30;99.90
45715;DHT22;31430;61.646;24.704;2023-04-03T03:52:32;-12.30;99.90
45715;DHT22;31430;61.646;24.704;2023-04-03T03:54:58;-12.30;99.90
45715;DHT22;31430;61.646;24.704;2023-04-03T03:57:23;-12.30;99.90
45715;DHT22;31430;61.646;24.704;2023-04-03T03:59:49;-12.30;99.90
45715;DHT22;31430;61.646;24.704;2023-04-03T04:02:17;-12.20;99.90
45715;DHT22;31430;61.646;24.704;2023-04-03T04:04:42;-12.20;99.90
45715;DHT22;31430;61.646;24.704;2023-04-03T04:07:08;-12.10;99.90
45715;DHT22;31430;61.646;24.704;2023-04-03T04:09:34;-12.10;99.90
45715;DHT22;31430;61.646;24.704;2023-04-03T04:11:59;-11.80;99.90
45715;DHT22;31430;61.646;24.704;2023-04-03T04:14:25;-11.70;99.90
45715;DHT22;31430;61.646;24.704;2023-04-03T04:16:51;-11.60;99.90
45715;DHT22;31430;61.646;24.704;2023-04-03T04:19:17;-11.50;99.90
45715;DHT22;31430;61.646;24.704;2023-04-03T04:21:43;-11.50;99.90
45715;DHT22;31430;61.646;24.704;2023-04-03T04:24:09;-11.30;99.90
45715;DHT22;31430;61.646;24.704;2023-04-03T04:26:35;-11.20;99.90
45715;DHT22;31430;61.646;24.704;2023-04-03T04:29:01;-11.10;99.90
45715;DHT22;31430;61.646;24.704;2023-04-03T04:31:26;-11.00;99.90
45715;DHT22;31430;61.646;24.704;2023-04-03T04:33:53;-10.90;99.90
45715;DHT22;31430;61.646;24.704;2023-04-03T04:36:19;-11.00;99.90
45715;DHT22;31430;61.646;24.704;2023-04-03T04:38:45;-10.90;99.90
45715;DHT22;31430;61.646;24.704;2023-04-03T04:41:10;-11.00;99.90
45715;DHT22;31430;61.646;24.704;2023-04-03T04:43:36;-10.90;99.90
45715;DHT22;31430;61.646;24.704;2023-04-03T04:46:07;-10.70;99.90
45715;DHT22;31430;61.646;24.704;2023-04-03T04:48:34;-10.70;99.90
45715;DHT22;31430;61.646;24.704;2023-04-03T04:51:00;-10.60;99.90
45715;DHT22;31430;61.646;24.704;2023-04-03T04:53:26;-10.40;99.90
45715;DHT22;31430;61.646;24.704;2023-04-03T04:55:52;-10.40;99.90
45715;DHT22;31430;61.646;24.704;2023-04-03T04:58:18;-10.40;99.90
45715;DHT22;31430;61.646;24.704;2023-04-03T05:00:44;-10.40;99.90
45715;DHT22;31430;61.646;24.704;2023-04-03T05:03:10;-10.30;99.90
45715;DHT22;31430;61.646;24.704;2023-04-03T05:05:36;-10.20;99.90
45715;DHT22;31430;61.646;24.704;2023-04-03T05:08:03;-10.00;99.90
45715;DHT22;31430;61.646;24.704;2023-04-03T05:10:29;-9.90;99.90
45715;DHT22;31430;61.646;24.704;2023-04-03T05:12:55;-9.80;99.90
45715;DHT22;31430;61.646;24.704;2023-04-03T05:15:21;-9.90;99.90
45715;DHT22;31430;61.646;24.704;2023-04-03T05:17:46;-9.70;99.90
45715;DHT22;31430;61.646;24.704;2023-04-03T05:20:13;-9.40;99.90
45715;DHT22;31430;61.646;24.704;2023-04-03T05:22:38;-9.20;99.90
45715;DHT22;31430;61.646;24.704;2023-04-03T05:25:05;-9.00;99.90
45715;DHT22;31430;61.646;24.704;2023-04-03T05:27:31;-8.80;99.90
45715;DHT22;31430;61.646;24.704;2023-04-03T05:29:57;-8.80;99.90
45715;DHT22;31430;61.646;24.704;2023-04-03T05:32:23;-8.80;99.90
45715;DHT22;31430;61.646;24.704;2023-04-03T05:34:50;-8.60;99.90
45715;DHT22;31430;61.646;24.704;2023-04-03T05:37:17;-8.50;99.90
45715;DHT22;31430;61.646;24.704;2023-04-03T05:39:43;-8.20;99.90
45715;DHT22;31430;61.646;24.704;2023-04-03T05:42:08;-7.90;99.90
45715;DHT22;31430;61.646;24.704;2023-04-03T05:44:34;-7.80;99.90
45715;DHT22;31430;61.646;24.704;2023-04-03T05:47:00;-7.60;99.90
45715;DHT22;31430;61.646;24.704;2023-04-03T05:49:26;-7.40;99.90
45715;DHT22;31430;61.646;24.704;2023-04-03T05:51:52;-7.40;99.60
45715;DHT22;31430;61.646;24.704;2023-04-03T05:54:21;-7.10;98.00
45715;DHT22;31430;61.646;24.704;2023-04-03T05:56:49;-7.10;97.30
45715;DHT22;31430;61.646;24.704;2023-04-03T05:59:17;-7.00;97.10
45715;DHT22;31430;61.646;24.704;2023-04-03T06:01:43;-6.90;97.10
45715;DHT22;31430;61.646;24.704;2023-04-03T06:04:09;-6.70;95.60
45715;DHT22;31430;61.646;24.704;2023-04-03T06:06:51;-6.60;94.50
45715;DHT22;31430;61.646;24.704;2023-04-03T06:09:19;-6.30;94.70
45715;DHT22;31430;61.646;24.704;2023-04-03T06:11:45;-6.00;93.40
45715;DHT22;31430;61.646;24.704;2023-04-03T06:14:11;-5.90;92.90
45715;DHT22;31430;61.646;24.704;2023-04-03T06:16:37;-5.70;91.90
45715;DHT22;31430;61.646;24.704;2023-04-03T06:19:05;-5.50;90.90
45715;DHT22;31430;61.646;24.704;2023-04-03T06:21:31;-5.50;91.60
45715;DHT22;31430;61.646;24.704;2023-04-03T06:23:57;-5.30;90.80
45715;DHT22;31430;61.646;24.704;2023-04-03T06:26:23;-5.10;90.10
45715;DHT22;31430;61.646;24.704;2023-04-03T06:28:48;-5.00;88.60
45715;DHT22;31430;61.646;24.704;2023-04-03T06:31:14;-4.80;87.20
45715;DHT22;31430;61.646;24.704;2023-04-03T06:33:40;-4.70;86.40
45715;DHT22;31430;61.646;24.704;2023-04-03T06:36:07;-4.60;85.90
45715;DHT22;31430;61.646;24.704;2023-04-03T06:38:33;-4.50;85.80
45715;DHT22;31430;61.646;24.704;2023-04-03T06:40:59;-4.40;84.90
45715;DHT22;31430;61.646;24.704;2023-04-03T06:43:26;-4.40;84.60
45715;DHT22;31430;61.646;24.704;2023-04-03T06:45:51;-4.30;84.10
45715;DHT22;31430;61.646;24.704;2023-04-03T06:48:17;-4.10;83.20
45715;DHT22;31430;61.646;24.704;2023-04-03T06:50:43;-4.00;83.10
45715;DHT22;31430;61.646;24.704;2023-04-03T06:53:09;-4.00;82.90
45715;DHT22;31430;61.646;24.704;2023-04-03T06:55:35;-3.80;83.40
45715;DHT22;31430;61.646;24.704;2023-04-03T06:58:02;-3.80;82.30
45715;DHT22;31430;61.646;24.704;2023-04-03T07:00:29;-3.70;82.10
45715;DHT22;31430;61.646;24.704;2023-04-03T07:02:56;-3.60;80.60
45715;DHT22;31430;61.646;24.704;2023-04-03T07:05:23;-3.40;79.60
45715;DHT22;31430;61.646;24.704;2023-04-03T07:07:50;-3.30;79.80
45715;DHT22;31430;61.646;24.704;2023-04-03T07:10:17;-3.20;81.00
45715;DHT22;31430;61.646;24.704;2023-04-03T07:12:43;-3.10;78.90
45715;DHT22;31430;61.646;24.704;2023-04-03T07:15:09;-3.00;78.40
45715;DHT22;31430;61.646;24.704;2023-04-03T07:17:35;-2.90;78.40
45715;DHT22;31430;61.646;24.704;2023-04-03T07:20:02;-2.80;77.40
45715;DHT22;31430;61.646;24.704;2023-04-03T07:22:29;-2.80;80.00
45715;DHT22;31430;61.646;24.704;2023-04-03T07:24:55;-2.70;78.20
45715;DHT22;31430;61.646;24.704;2023-04-03T07:27:20;-2.70;76.80
45715;DHT22;31430;61.646;24.704;2023-04-03T07:29:46;-2.60;77.80
45715;DHT22;31430;61.646;24.704;2023-04-03T07:32:14;-2.40;76.20
45715;DHT22;31430;61.646;24.704;2023-04-03T07:34:40;-2.30;76.50
45715;DHT22;31430;61.646;24.704;2023-04-03T07:37:06;-2.20;75.90
45715;DHT22;31430;61.646;24.704;2023-04-03T07:39:32;-2.20;74.10
45715;DHT22;31430;61.646;24.704;2023-04-03T07:41:58;-2.00;73.10
45715;DHT22;31430;61.646;24.704;2023-04-03T07:44:24;-2.00;74.40
45715;DHT22;31430;61.646;24.704;2023-04-03T07:46:50;-2.00;75.90
45715;DHT22;31430;61.646;24.704;2023-04-03T07:49:16;-2.00;74.50
45715;DHT22;31430;61.646;24.704;2023-04-03T07:51:43;-1.80;73.60
45715;DHT22;31430;61.646;24.704;2023-04-03T07:54:09;-1.70;71.50
45715;DHT22;31430;61.646;24.704;2023-04-03T07:56:35;-1.60;69.10
45715;DHT22;31430;61.646;24.704;2023-04-03T07:59:01;-1.60;67.50
45715;DHT22;31430;61.646;24.704;2023-04-03T08:01:26;-1.40;67.40
45715;DHT22;31430;61.646;24.704;2023-04-03T08:03:53;-1.50;67.40
45715;DHT22;31430;61.646;24.704;2023-04-03T08:06:18;-1.50;66.30
45715;DHT22;31430;61.646;24.704;2023-04-03T08:08:44;-1.30;64.70
45715;DHT22;31430;61.646;24.704;2023-04-03T08:11:10;-1.30;67.30
45715;DHT22;31430;61.646;24.704;2023-04-03T08:13:36;-1.40;65.40
45715;DHT22;31430;61.646;24.704;2023-04-03T08:16:13;-1.20;68.90
45715;DHT22;31430;61.646;24.704;2023-04-03T08:18:42;-1.10;64.00
45715;DHT22;31430;61.646;24.704;2023-04-03T08:21:08;-1.00;62.40
45715;DHT22;31430;61.646;24.704;2023-04-03T08:23:34;-1.10;64.80
45715;DHT22;31430;61.646;24.704;2023-04-03T08:26:04;-1.10;63.30
45715;DHT22;31430;61.646;24.704;2023-04-03T08:28:30;-1.00;63.30
45715;DHT22;31430;61.646;24.704;2023-04-03T08:30:55;-0.90;63.70
45715;DHT22;31430;61.646;24.704;2023-04-03T08:33:21;-0.90;61.60
45715;DHT22;31430;61.646;24.704;2023-04-03T08:35:47;-0.90;61.70
45715;DHT22;31430;61.646;24.704;2023-04-03T08:38:12;-1.40;65.10
45715;DHT22;31430;61.646;24.704;2023-04-03T08:40:38;-1.10;62.70
45715;DHT22;31430;61.646;24.704;2023-04-03T08:45:50;-0.90;64.10
45715;DHT22;31430;61.646;24.704;2023-04-03T08:48:24;-0.80;61.80
45715;DHT22;31430;61.646;24.704;2023-04-03T08:50:56;-0.60;63.30
45715;DHT22;31430;61.646;24.704;2023-04-03T08:53:29;-0.50;63.20
45715;DHT22;31430;61.646;24.704;2023-04-03T08:55:58;-0.50;60.10
45715;DHT22;31430;61.646;24.704;2023-04-03T08:58:26;-0.80;61.90
45715;DHT22;31430;61.646;24.704;2023-04-03T09:01:19;-0.60;60.00
45715;DHT22;31430;61.646;24.704;2023-04-03T09:03:45;-0.40;60.40
45715;DHT22;31430;61.646;24.704;2023-04-03T09:06:13;-0.30;61.00
45715;DHT22;31430;61.646;24.704;2023-04-03T09:13:57;-0.50;58.50
45715;DHT22;31430;61.646;24.704;2023-04-03T09:21:57;-0.40;58.00
45715;DHT22;31430;61.646;24.704;2023-04-03T09:24:23;-0.30;57.50
45715;DHT22;31430;61.646;24.704;2023-04-03T09:26:53;-0.20;58.50
45715;DHT22;31430;61.646;24.704;2023-04-03T09:29:23;-0.30;59.40
45715;DHT22;31430;61.646;24.704;2023-04-03T09:31:54;-0.30;60.20
45715;DHT22;31430;61.646;24.704;2023-04-03T09:36:55;-0.30;61.50
45715;DHT22;31430;61.646;24.704;2023-04-03T09:39:22;-0.10;57.40
45715;DHT22;31430;61.646;24.704;2023-04-03T09:42:03;-0.10;56.80
45715;DHT22;31430;61.646;24.704;2023-04-03T09:44:34;-0.10;58.30
45715;DHT22;31430;61.646;24.704;2023-04-03T09:49:49;0.20;58.90
45715;DHT22;31430;61.646;24.704;2023-04-03T09:52:19;-0.20;57.10
45715;DHT22;31430;61.646;24.704;2023-04-03T09:54:45;-0.10;59.60
45715;DHT22;31430;61.646;24.704;2023-04-03T09:57:12;-0.10;57.90
45715;DHT22;31430;61.646;24.704;2023-04-03T09:59:47;0.00;57.90
45715;DHT22;31430;61.646;24.704;2023-04-03T10:02:36;0.00;56.10
45715;DHT22;31430;61.646;24.704;2023-04-03T10:05:05;0.20;57.00
45715;DHT22;31430;61.646;24.704;2023-04-03T10:07:49;0.30;57.30
45715;DHT22;31430;61.646;24.704;2023-04-03T10:12:43;0.40;56.00
45715;DHT22;31430;61.646;24.704;2023-04-03T10:15:12;0.40;57.50
45715;DHT22;31430;61.646;24.704;2023-04-03T10:18:00;0.10;56.20
45715;DHT22;31430;61.646;24.704;2023-04-03T10:20:39;0.00;56.40
45715;DHT22;31430;61.646;24.704;2023-04-03T10:31:49;0.20;59.90
45715;DHT22;31430;61.646;24.704;2023-04-03T10:34:31;0.20;57.30
45715;DHT22;31430;61.646;24.704;2023-04-03T10:58:39;0.90;51.30
45715;DHT22;31430;61.646;24.704;2023-04-03T11:01:13;0.90;51.50
45715;DHT22;31430;61.646;24.704;2023-04-03T11:03:43;0.80;51.90
45715;DHT22;31430;61.646;24.704;2023-04-03T11:06:12;0.90;52.80
45715;DHT22;31430;61.646;24.704;2023-04-03T11:09:26;0.90;53.80
45715;DHT22;31430;61.646;24.704;2023-04-03T11:12:02;0.70;50.10
45715;DHT22;31430;61.646;24.704;2023-04-03T11:14:35;0.70;49.40
45715;DHT22;31430;61.646;24.704;2023-04-03T11:22:31;1.30;50.60
45715;DHT22;31430;61.646;24.704;2023-04-03T11:30:39;1.40;53.00
45715;DHT22;31430;61.646;24.704;2023-04-03T11:35:34;1.70;48.20
45715;DHT22;31430;61.646;24.704;2023-04-03T11:38:02;1.70;51.20
45715;DHT22;31430;61.646;24.704;2023-04-03T11:40:35;1.30;52.50
45715;DHT22;31430;61.646;24.704;2023-04-03T11:43:06;1.20;52.90
45715;DHT22;31430;61.646;24.704;2023-04-03T11:45:34;1.20;52.60
45715;DHT22;31430;61.646;24.704;2023-04-03T11:48:04;1.10;50.80
45715;DHT22;31430;61.646;24.704;2023-04-03T11:50:47;1.10;52.70
45715;DHT22;31430;61.646;24.704;2023-04-03T11:55:45;1.20;53.20
45715;DHT22;31430;61.646;24.704;2023-04-03T11:58:12;1.40;50.10
45715;DHT22;31430;61.646;24.704;2023-04-03T12:08:50;1.70;52.00
45715;DHT22;31430;61.646;24.704;2023-04-03T12:11:28;1.70;52.00
45715;DHT22;31430;61.646;24.704;2023-04-03T12:24:40;1.70;50.10
45715;DHT22;31430;61.646;24.704;2023-04-03T12:32:54;1.70;48.90
45715;DHT22;31430;61.646;24.704;2023-04-03T12:40:58;2.00;47.80
45715;DHT22;31430;61.646;24.704;2023-04-03T12:46:21;1.50;49.60
45715;DHT22;31430;61.646;24.704;2023-04-03T12:48:56;1.50;50.00
45715;DHT22;31430;61.646;24.704;2023-04-03T12:51:40;1.50;49.40
45715;DHT22;31430;61.646;24.704;2023-04-03T12:57:12;1.50;51.60
45715;DHT22;31430;61.646;24.704;2023-04-03T12:59:42;1.60;51.80
45715;DHT22;31430;61.646;24.704;2023-04-03T13:02:20;1.90;47.90
45715;DHT22;31430;61.646;24.704;2023-04-03T13:04:46;2.00;49.90
45715;DHT22;31430;61.646;24.704;2023-04-03T13:12:44;1.60;51.50
45715;DHT22;31430;61.646;24.704;2023-04-03T13:17:51;1.70;47.50
45715;DHT22;31430;61.646;24.704;2023-04-03T13:20:29;1.60;49.80
45715;DHT22;31430;61.646;24.704;2023-04-03T13:23:04;1.50;50.10
45715;DHT22;31430;61.646;24.704;2023-04-03T13:25:33;1.50;49.00
45715;DHT22;31430;61.646;24.704;2023-04-03T13:28:01;1.40;51.50
45715;DHT22;31430;61.646;24.704;2023-04-03T13:30:34;1.50;50.30
45715;DHT22;31430;61.646;24.704;2023-04-03T13:33:04;1.30;52.60
45715;DHT22;31430;61.646;24.704;2023-04-03T13:35:37;1.30;50.50
45715;DHT22;31430;61.646;24.704;2023-04-03T13:40:50;1.50;49.00
45715;DHT22;31430;61.646;24.704;2023-04-03T13:43:24;1.80;51.90
45715;DHT22;31430;61.646;24.704;2023-04-03T13:48:47;2.30;47.30
45715;DHT22;31430;61.646;24.704;2023-04-03T14:07:06;1.70;47.70
45715;DHT22;31430;61.646;24.704;2023-04-03T14:09:31;1.80;48.90
45715;DHT22;31430;61.646;24.704;2023-04-03T14:12:05;1.80;49.80
45715;DHT22;31430;61.646;24.704;2023-04-03T14:14:33;1.90;48.10
45715;DHT22;31430;61.646;24.704;2023-04-03T14:17:01;1.70;48.40
45715;DHT22;31430;61.646;24.704;2023-04-03T14:19:30;1.90;51.50
45715;DHT22;31430;61.646;24.704;2023-04-03T14:21:58;2.10;48.30
45715;DHT22;31430;61.646;24.704;2023-04-03T14:24:25;2.10;48.10
45715;DHT22;31430;61.646;24.704;2023-04-03T14:26:53;2.10;48.30
45715;DHT22;31430;61.646;24.704;2023-04-03T14:29:21;2.20;44.50
45715;DHT22;31430;61.646;24.704;2023-04-03T14:31:48;2.20;41.50
45715;DHT22;31430;61.646;24.704;2023-04-03T14:34:15;2.30;44.50
45715;DHT22;31430;61.646;24.704;2023-04-03T14:36:42;2.40;44.80
45715;DHT22;31430;61.646;24.704;2023-04-03T14:39:16;2.10;44.50
45715;DHT22;31430;61.646;24.704;2023-04-03T14:41:43;2.10;42.30
45715;DHT22;31430;61.646;24.704;2023-04-03T14:44:09;2.10;47.80
45715;DHT22;31430;61.646;24.704;2023-04-03T14:46:35;1.70;48.10
45715;DHT22;31430;61.646;24.704;2023-04-03T14:49:03;1.40;47.70
45715;DHT22;31430;61.646;24.704;2023-04-03T14:51:33;1.60;45.30
45715;DHT22;31430;61.646;24.704;2023-04-03T14:53:59;1.50;45.70
45715;DHT22;31430;61.646;24.704;2023-04-03T14:56:28;1.60;45.30
45715;DHT22;31430;61.646;24.704;2023-04-03T14:58:59;1.90;47.40
45715;DHT22;31430;61.646;24.704;2023-04-03T15:01:27;1.90;47.50
45715;DHT22;31430;61.646;24.704;2023-04-03T15:03:53;1.80;48.20
45715;DHT22;31430;61.646;24.704;2023-04-03T15:06:18;1.80;46.80
45715;DHT22;31430;61.646;24.704;2023-04-03T15:08:46;1.80;50.10
45715;DHT22;31430;61.646;24.704;2023-04-03T15:11:12;1.60;48.20
45715;DHT22;31430;61.646;24.704;2023-04-03T15:13:39;1.60;49.50
45715;DHT22;31430;61.646;24.704;2023-04-03T15:16:10;1.70;48.00
45715;DHT22;31430;61.646;24.704;2023-04-03T15:18:38;1.60;48.80
45715;DHT22;31430;61.646;24.704;2023-04-03T15:21:05;1.50;49.80
45715;DHT22;31430;61.646;24.704;2023-04-03T15:23:31;1.50;46.90
45715;DHT22;31430;61.646;24.704;2023-04-03T15:25:57;1.50;45.60
45715;DHT22;31430;61.646;24.704;2023-04-03T15:28:25;1.30;46.40
45715;DHT22;31430;61.646;24.704;2023-04-03T15:31:11;1.20;46.40
45715;DHT22;31430;61.646;24.704;2023-04-03T15:33:37;1.20;45.90
45715;DHT22;31430;61.646;24.704;2023-04-03T15:36:03;1.10;46.90
45715;DHT22;31430;61.646;24.704;2023-04-03T15:38:29;1.30;47.70
45715;DHT22;31430;61.646;24.704;2023-04-03T15:40:55;1.30;48.10
45715;DHT22;31430;61.646;24.704;2023-04-03T15:43:21;1.40;48.40
45715;DHT22;31430;61.646;24.704;2023-04-03T15:45:48;1.20;48.00
45715;DHT22;31430;61.646;24.704;2023-04-03T15:48:14;0.60;53.00
45715;DHT22;31430;61.646;24.704;2023-04-03T15:50:40;0.70;48.10
45715;DHT22;31430;61.646;24.704;2023-04-03T15:53:07;0.70;48.90
45715;DHT22;31430;61.646;24.704;2023-04-03T15:55:35;0.60;47.20
45715;DHT22;31430;61.646;24.704;2023-04-03T15:58:01;0.10;50.00
45715;DHT22;31430;61.646;24.704;2023-04-03T16:00:28;0.30;48.50
45715;DHT22;31430;61.646;24.704;2023-04-03T16:02:58;0.00;50.00
45715;DHT22;31430;61.646;24.704;2023-04-03T16:05:24;0.10;49.30
45715;DHT22;31430;61.646;24.704;2023-04-03T16:07:50;-0.20;53.50
45715;DHT22;31430;61.646;24.704;2023-04-03T16:10:18;-0.30;49.90
45715;DHT22;31430;61.646;24.704;2023-04-03T16:12:44;-0.40;52.10
45715;DHT22;31430;61.646;24.704;2023-04-03T16:15:10;-0.40;51.80
45715;DHT22;31430;61.646;24.704;2023-04-03T16:17:36;-0.60;50.50
45715;DHT22;31430;61.646;24.704;2023-04-03T16:20:03;-0.70;51.90
45715;DHT22;31430;61.646;24.704;2023-04-03T16:22:29;-0.80;51.40
45715;DHT22;31430;61.646;24.704;2023-04-03T16:24:56;-0.90;53.00
45715;DHT22;31430;61.646;24.704;2023-04-03T16:27:22;-1.00;54.50
45715;DHT22;31430;61.646;24.704;2023-04-03T16:29:48;-1.10;53.60
45715;DHT22;31430;61.646;24.704;2023-04-03T16:32:13;-1.10;52.10
45715;DHT22;31430;61.646;24.704;2023-04-03T16:34:39;-1.20;54.00
45715;DHT22;31430;61.646;24.704;2023-04-03T16:37:06;-1.30;53.70
45715;DHT22;31430;61.646;24.704;2023-04-03T16:39:34;-1.30;52.00
45715;DHT22;31430;61.646;24.704;2023-04-03T16:42:00;-1.30;51.60
45715;DHT22;31430;61.646;24.704;2023-04-03T16:44:26;-1.50;54.10
45715;DHT22;31430;61.646;24.704;2023-04-03T16:46:51;-1.60;53.90
45715;DHT22;31430;61.646;24.704;2023-04-03T16:49:17;-1.70;53.40
45715;DHT22;31430;61.646;24.704;2023-04-03T16:51:43;-1.80;53.00
45715;DHT22;31430;61.646;24.704;2023-04-03T16:54:09;-1.80;53.20
45715;DHT22;31430;61.646;24.704;2023-04-03T16:56:36;-1.90;53.50
45715;DHT22;31430;61.646;24.704;2023-04-03T16:59:02;-2.10;55.30
45715;DHT22;31430;61.646;24.704;2023-04-03T17:01:28;-2.20;53.90
45715;DHT22;31430;61.646;24.704;2023-04-03T17:03:53;-2.40;55.00
45715;DHT22;31430;61.646;24.704;2023-04-03T17:06:20;-2.50;55.30
45715;DHT22;31430;61.646;24.704;2023-04-03T17:08:50;-2.70;56.40
45715;DHT22;31430;61.646;24.704;2023-04-03T17:11:17;-2.80;57.30
45715;DHT22;31430;61.646;24.704;2023-04-03T17:13:43;-3.00;57.60
45715;DHT22;31430;61.646;24.704;2023-04-03T17:16:10;-3.20;57.90
45715;DHT22;31430;61.646;24.704;2023-04-03T17:18:36;-3.30;57.90
45715;DHT22;31430;61.646;24.704;2023-04-03T17:21:03;-3.40;58.00
45715;DHT22;31430;61.646;24.704;2023-04-03T17:23:30;-3.60;58.70
45715;DHT22;31430;61.646;24.704;2023-04-03T17:25:56;-3.70;59.40
45715;DHT22;31430;61.646;24.704;2023-04-03T17:28:22;-3.80;62.10
45715;DHT22;31430;61.646;24.704;2023-04-03T17:30:54;-4.00;62.90
45715;DHT22;31430;61.646;24.704;2023-04-03T17:33:20;-4.10;64.90
45715;DHT22;31430;61.646;24.704;2023-04-03T17:35:45;-4.30;66.10
45715;DHT22;31430;61.646;24.704;2023-04-03T17:38:11;-4.40;66.00
45715;DHT22;31430;61.646;24.704;2023-04-03T17:40:37;-4.50;66.00
45715;DHT22;31430;61.646;24.704;2023-04-03T17:43:03;-4.70;66.90